createdAt,value
2023-03-28T00:01:03.019Z,101362.34
2023-03-28T00:03:36.930Z,101347.94
2023-03-28T00:06:12.419Z,101380.34
2023-03-28T00:08:41.015Z,101360.44
2023-03-28T00:11:12.944Z,101325.88
2023-03-28T00:13:42.047Z,101352.31
2023-03-28T00:16:13.791Z,101374.38
2023-03-28T00:18:43.396Z,101339.50
2023-03-28T00:21:27.933Z,101371.09
2023-03-28T00:23:58.159Z,101380.88
2023-03-28T00:26:27.125Z,101304.38
2023-03-28T00:29:01.632Z,101371.06
2023-03-28T00:31:30.588Z,101380.88
2023-03-28T00:33:58.677Z,101362.63
2023-03-28T00:36:29.716Z,101370.00
2023-03-28T00:38:59.268Z,101369.72
2023-03-28T00:41:32.533Z,101361.56
2023-03-28T00:44:01.695Z,101326.16
2023-03-28T00:46:36.443Z,101378.19
2023-03-28T00:49:07.156Z,101383.34
2023-03-28T00:51:41.072Z,101375.16
2023-03-28T00:54:13.311Z,101344.66
2023-03-28T00:56:45.974Z,101353.13
2023-03-28T00:59:18.689Z,101388.50
2023-03-28T01:01:47.473Z,101384.69
2023-03-28T01:04:20.685Z,101354.19
2023-03-28T01:06:55.001Z,101331.59
2023-03-28T01:09:28.394Z,101353.91
2023-03-28T01:11:59.149Z,101377.63
2023-03-28T01:14:29.633Z,101358.03
2023-03-28T01:16:59.956Z,101338.69
2023-03-28T01:19:50.528Z,101372.16
2023-03-28T01:22:56.757Z,101365.06
2023-03-28T01:25:58.538Z,101348.75
2023-03-28T01:28:49.880Z,101336.78
2023-03-28T01:31:36.018Z,101360.75
2023-03-28T01:34:45.540Z,101359.38
2023-03-28T01:37:19.283Z,101358.56
2023-03-28T01:39:57.875Z,101343.28
2023-03-28T01:42:50.876Z,101347.94
2023-03-28T01:45:48.500Z,101316.09
2023-03-28T01:48:42.692Z,101348.47
2023-03-28T01:52:07.135Z,101349.28
2023-03-28T01:54:59.609Z,101348.22
2023-03-28T01:57:39.465Z,101346.03
2023-03-28T02:00:20.251Z,101348.22
2023-03-28T02:03:14.574Z,101334.03
2023-03-28T02:05:55.814Z,101335.97
2023-03-28T02:08:28.924Z,101335.69
2023-03-28T02:11:15.718Z,101285.56
2023-03-28T02:14:02.431Z,101318.25
2023-03-28T02:16:54.359Z,101320.97
2023-03-28T02:19:45.996Z,101293.22
2023-03-28T02:23:06.029Z,101311.72
2023-03-28T02:26:09.752Z,101318.25
2023-03-28T02:28:58.672Z,101328.59
2023-03-28T02:31:38.875Z,101326.69
2023-03-28T02:34:07.712Z,101326.16
2023-03-28T02:36:44.401Z,101326.69
2023-03-28T02:39:33.854Z,101326.44
2023-03-28T02:42:40.707Z,101331.88
2023-03-28T02:45:29.178Z,101325.88
2023-03-28T02:48:18.758Z,101323.16
2023-03-28T02:50:55.887Z,101320.16
2023-03-28T02:53:39.338Z,101328.59
2023-03-28T02:56:16.434Z,101319.88
2023-03-28T02:59:25.063Z,101329.69
2023-03-28T03:01:53.391Z,101325.34
2023-03-28T03:04:21.526Z,101315.53
2023-03-28T03:06:49.722Z,101261.63
2023-03-28T03:09:19.364Z,101287.19
2023-03-28T03:11:48.452Z,101298.38
2023-03-28T03:14:16.754Z,101326.72
2023-03-28T03:16:46.194Z,101271.44
2023-03-28T03:19:19.600Z,101321.25
2023-03-28T03:21:47.606Z,101228.97
2023-03-28T03:24:15.909Z,101256.72
2023-03-28T03:26:45.652Z,101309.53
2023-03-28T03:29:18.427Z,101318.78
2023-03-28T03:31:46.585Z,101318.53
2023-03-28T03:34:21.002Z,101305.19
2023-03-28T03:36:55.070Z,101265.16
2023-03-28T03:39:23.780Z,101300.81
2023-03-28T03:41:51.710Z,101320.44
2023-03-28T03:44:19.902Z,101238.72
2023-03-28T03:46:47.930Z,101285.31
2023-03-28T03:49:15.942Z,101336.78
2023-03-28T03:51:44.150Z,101303.56
2023-03-28T03:54:16.968Z,101335.69
2023-03-28T03:56:45.567Z,101291.00
2023-03-28T03:59:13.590Z,101315.53
2023-03-28T04:01:45.231Z,101308.97
2023-03-28T04:04:37.301Z,101307.06
2023-03-28T04:07:24.810Z,101344.38
2023-03-28T04:09:55.447Z,101253.69
2023-03-28T04:12:27.167Z,101277.41
2023-03-28T04:14:58.579Z,101284.78
2023-03-28T04:17:43.759Z,101312.00
2023-03-28T04:20:15.534Z,101261.06
2023-03-28T04:23:05.993Z,101244.16
2023-03-28T04:25:35.265Z,101305.97
2023-03-28T04:28:06.142Z,101325.06
2023-03-28T04:30:39.013Z,101275.22
2023-03-28T04:33:45.548Z,101331.84
2023-03-28T04:36:17.167Z,101346.00
2023-03-28T04:38:49.416Z,101321.75
2023-03-28T04:41:37.425Z,101332.38
2023-03-28T04:44:23.978Z,101344.38
2023-03-28T04:47:00.610Z,101337.28
2023-03-28T04:49:30.947Z,101336.19
2023-03-28T04:51:58.719Z,101309.53
2023-03-28T04:54:27.579Z,101331.84
2023-03-28T04:57:05.455Z,101338.66
2023-03-28T04:59:44.771Z,101334.59
2023-03-28T05:02:21.288Z,101336.50
2023-03-28T05:05:00.386Z,101281.13
2023-03-28T05:07:28.185Z,101349.00
2023-03-28T05:09:56.641Z,101344.91
2023-03-28T05:12:24.366Z,101339.75
2023-03-28T05:15:07.681Z,101343.81
2023-03-28T05:17:47.614Z,101334.81
2023-03-28T05:20:22.512Z,101351.44
2023-03-28T05:22:54.873Z,101323.13
2023-03-28T05:25:23.108Z,101353.09
2023-03-28T05:27:51.618Z,101265.06
2023-03-28T05:30:20.913Z,101361.56
2023-03-28T05:32:53.136Z,101345.47
2023-03-28T05:35:23.032Z,101367.78
2023-03-28T05:37:51.674Z,101330.75
2023-03-28T05:40:21.448Z,101377.88
2023-03-28T05:42:51.269Z,101385.50
2023-03-28T05:45:21.428Z,101347.34
2023-03-28T05:48:19.208Z,101374.31
2023-03-28T05:50:51.404Z,101388.75
2023-03-28T05:53:20.957Z,101396.66
2023-03-28T05:55:51.145Z,101403.19
2023-03-28T05:58:20.376Z,101334.47
2023-03-28T06:00:48.134Z,101398.81
2023-03-28T06:03:17.418Z,101370.97
2023-03-28T06:05:47.044Z,101402.06
2023-03-28T06:08:33.441Z,101378.91
2023-03-28T06:11:09.300Z,101402.06
2023-03-28T06:13:57.504Z,101404.22
2023-03-28T06:16:30.461Z,101417.59
2023-03-28T06:19:14.407Z,101400.38
2023-03-28T06:21:49.730Z,101432.56
2023-03-28T06:24:17.710Z,101383.16
2023-03-28T06:26:47.089Z,101438.28
2023-03-28T06:29:19.880Z,101436.41
2023-03-28T06:31:50.272Z,101413.47
2023-03-28T06:34:19.797Z,101415.38
2023-03-28T06:36:58.013Z,101425.75
2023-03-28T06:39:30.692Z,101455.75
2023-03-28T06:42:03.619Z,101427.34
2023-03-28T06:44:43.689Z,101431.75
2023-03-28T06:47:40.973Z,101451.63
2023-03-28T06:50:09.426Z,101468.78
2023-03-28T06:52:53.476Z,101422.44
2023-03-28T06:55:23.224Z,101472.88
2023-03-28T06:57:51.463Z,101374.44
2023-03-28T07:00:29.480Z,101442.34
2023-03-28T07:03:34.215Z,101459.25
2023-03-28T07:06:08.276Z,101464.72
2023-03-28T07:08:37.874Z,101481.34
2023-03-28T07:11:07.585Z,101436.91
2023-03-28T07:13:36.922Z,101411.00
2023-03-28T07:16:13.297Z,101438.00
2023-03-28T07:18:42.072Z,101451.09
2023-03-28T07:21:15.222Z,101486.56
2023-03-28T07:23:45.048Z,101489.28
2023-03-28T07:26:16.334Z,101487.34
2023-03-28T07:28:44.467Z,101485.72
2023-03-28T07:31:13.264Z,101467.16
2023-03-28T07:33:41.536Z,101469.59
2023-03-28T07:36:16.356Z,101447.81
2023-03-28T07:38:49.262Z,101503.69
2023-03-28T07:41:20.201Z,101492.50
2023-03-28T07:43:48.073Z,101498.47
2023-03-28T07:46:16.773Z,101526.81
2023-03-28T07:48:46.803Z,101521.38
2023-03-28T07:51:16.601Z,101458.63
2023-03-28T07:53:46.353Z,101485.31
2023-03-28T07:56:14.748Z,101483.72
2023-03-28T07:59:02.193Z,101528.44
2023-03-28T08:01:30.352Z,101476.03
2023-03-28T08:04:03.440Z,101524.34
2023-03-28T08:06:42.550Z,101528.16
2023-03-28T08:09:14.357Z,101528.69
2023-03-28T08:11:44.654Z,101488.84
2023-03-28T08:14:14.932Z,101526.75
2023-03-28T08:16:44.199Z,101549.66
2023-03-28T08:19:13.881Z,101510.38
2023-03-28T08:22:02.934Z,101559.44
2023-03-28T08:24:37.213Z,101544.19
2023-03-28T08:27:11.964Z,101562.19
2023-03-28T08:29:41.206Z,101557.84
2023-03-28T08:32:10.782Z,101549.63
2023-03-28T08:34:40.800Z,101549.38
2023-03-28T08:37:20.763Z,101553.47
2023-03-28T08:39:51.204Z,101557.88
2023-03-28T08:43:02.036Z,101550.75
2023-03-28T08:45:32.898Z,101552.94
2023-03-28T08:48:16.524Z,101563.31
2023-03-28T08:50:47.838Z,101556.19
2023-03-28T08:53:39.282Z,101564.13
2023-03-28T08:56:08.765Z,101523.97
2023-03-28T08:58:50.443Z,101567.09
2023-03-28T09:01:22.424Z,101479.97
2023-03-28T09:03:50.740Z,101329.59
2023-03-28T09:06:32.274Z,101561.63
2023-03-28T09:09:08.828Z,101561.63
2023-03-28T09:12:05.180Z,101559.19
2023-03-28T09:14:52.486Z,101569.00
2023-03-28T09:17:53.598Z,101486.00
2023-03-28T09:20:31.824Z,101565.44
2023-03-28T09:23:06.270Z,101566.28
2023-03-28T09:26:35.006Z,101525.88
2023-03-28T09:29:21.348Z,101569.53
2023-03-28T09:31:52.162Z,101484.09
2023-03-28T09:34:30.757Z,101548.53
2023-03-28T09:37:36.966Z,101539.25
2023-03-28T09:40:26.857Z,101567.94
2023-03-28T09:43:58.686Z,101562.47
2023-03-28T09:46:44.650Z,101567.34
2023-03-28T09:49:44.482Z,101537.63
2023-03-28T09:52:18.666Z,101514.69
2023-03-28T09:54:48.659Z,101514.94
2023-03-28T09:57:16.718Z,101472.56
2023-03-28T09:59:50.894Z,101569.81
2023-03-28T10:02:32.966Z,101571.44
2023-03-28T10:05:29.635Z,101570.91
2023-03-28T10:08:21.776Z,101556.75
2023-03-28T10:11:12.599Z,101558.66
2023-03-28T10:13:51.148Z,101536.28
2023-03-28T10:16:32.566Z,101533.81
2023-03-28T10:19:26.500Z,101557.84
2023-03-28T10:22:14.389Z,101562.72
2023-03-28T10:24:49.939Z,101549.91
2023-03-28T10:27:32.033Z,101555.09
2023-03-28T10:30:24.481Z,101574.72
2023-03-28T10:33:18.357Z,101569.25
2023-03-28T10:36:07.801Z,101570.34
2023-03-28T10:38:48.065Z,101487.88
2023-03-28T10:41:30.476Z,101567.88
2023-03-28T10:44:26.361Z,101538.13
2023-03-28T10:47:19.284Z,101559.75
2023-03-28T10:49:56.392Z,101565.19
2023-03-28T10:52:51.965Z,101569.81
2023-03-28T10:55:32.765Z,101554.25
2023-03-28T10:58:55.202Z,101548.00
2023-03-28T11:01:40.765Z,101553.47
2023-03-28T11:04:56.122Z,101537.66
2023-03-28T11:07:38.518Z,101561.09
2023-03-28T11:10:16.437Z,101565.44
2023-03-28T11:13:28.428Z,101562.16
2023-03-28T11:16:49.060Z,101534.63
2023-03-28T11:20:07.452Z,101549.06
2023-03-28T11:23:14.959Z,101542.25
2023-03-28T11:26:09.846Z,101561.59
2023-03-28T11:29:12.894Z,101555.88
2023-03-28T11:31:55.690Z,101504.06
2023-03-28T11:34:30.901Z,101550.72
2023-03-28T11:37:33.707Z,101541.66
2023-03-28T11:40:15.691Z,101541.97
2023-03-28T11:43:05.739Z,101561.59
2023-03-28T11:45:51.333Z,101523.94
2023-03-28T11:48:45.046Z,101524.25
2023-03-28T11:51:33.449Z,101543.88
2023-03-28T11:54:07.083Z,101554.25
2023-03-28T11:56:51.969Z,101543.94
2023-03-28T11:59:53.837Z,101546.41
2023-03-28T12:02:42.742Z,101536.88
2023-03-28T12:05:35.260Z,101540.94
2023-03-28T12:08:30.381Z,101531.44
2023-03-28T12:11:06.516Z,101538.53
2023-03-28T12:14:01.251Z,101519.16
2023-03-28T12:16:42.860Z,101505.53
2023-03-28T12:19:19.797Z,101519.44
2023-03-28T12:22:00.230Z,101458.34
2023-03-28T12:24:58.282Z,101517.84
2023-03-28T12:27:40.037Z,101505.00
2023-03-28T12:30:23.195Z,101500.66
2023-03-28T12:33:02.173Z,101513.78
2023-03-28T12:35:51.998Z,101512.97
2023-03-28T12:38:49.522Z,101498.22
2023-03-28T12:41:33.784Z,101489.13
2023-03-28T12:44:12.885Z,101449.06
2023-03-28T12:46:51.748Z,101497.63
2023-03-28T12:49:34.692Z,101494.94
2023-03-28T12:52:12.010Z,101471.75
2023-03-28T12:55:05.994Z,101474.22
2023-03-28T12:57:43.916Z,101478.34
2023-03-28T13:00:40.114Z,101479.72
2023-03-28T13:04:18.481Z,101458.19
2023-03-28T13:07:12.683Z,101471.56
2023-03-28T13:10:02.936Z,101482.72
2023-03-28T13:12:57.073Z,101423.28
2023-03-28T13:15:28.940Z,101419.75
2023-03-28T13:18:30.685Z,101477.81
2023-03-28T13:21:04.584Z,101465.03
2023-03-28T13:23:36.643Z,101466.13
2023-03-28T13:26:06.997Z,101455.75
2023-03-28T13:28:49.055Z,101417.84
2023-03-28T13:31:24.538Z,101465.88
2023-03-28T13:34:00.091Z,101422.75
2023-03-28T13:36:30.477Z,101474.00
2023-03-28T13:39:24.245Z,101465.31
2023-03-28T13:41:55.472Z,101468.00
2023-03-28T13:44:40.308Z,101436.94
2023-03-28T13:47:15.211Z,101454.38
2023-03-28T13:50:10.143Z,101388.19
2023-03-28T13:52:39.404Z,101406.94
2023-03-28T13:55:23.772Z,101439.41
2023-03-28T13:57:52.820Z,101459.31
2023-03-28T14:00:25.727Z,101448.97
2023-03-28T14:03:01.747Z,101396.63
2023-03-28T14:05:33.729Z,101448.41
2023-03-28T14:08:19.679Z,101425.50
2023-03-28T14:10:48.140Z,101441.34
2023-03-28T14:13:29.032Z,101402.63
2023-03-28T14:15:57.118Z,101432.34
2023-03-28T14:18:36.086Z,101429.34
2023-03-28T14:21:07.957Z,101427.72
2023-03-28T14:23:38.783Z,101423.38
2023-03-28T14:26:17.392Z,101386.81
2023-03-28T14:28:46.659Z,101406.44
2023-03-28T14:31:32.191Z,101415.75
2023-03-28T14:34:12.771Z,101427.19
2023-03-28T14:37:06.504Z,101421.19
2023-03-28T14:39:37.402Z,101420.38
2023-03-28T14:42:08.665Z,101392.84
2023-03-28T14:44:41.204Z,101425.56
2023-03-28T14:47:16.526Z,101341.63
2023-03-28T14:49:46.146Z,101323.94
2023-03-28T14:52:25.536Z,101348.97
2023-03-28T14:54:53.689Z,101416.81
2023-03-28T14:57:22.164Z,101428.00
2023-03-28T14:59:51.568Z,101427.72
2023-03-28T15:02:22.291Z,101388.50
2023-03-28T15:04:51.706Z,101339.47
2023-03-28T15:07:28.513Z,101399.13
2023-03-28T15:10:18.492Z,101420.38
2023-03-28T15:12:50.730Z,101408.13
2023-03-28T15:15:34.869Z,101425.00
2023-03-28T15:18:09.077Z,101395.31
2023-03-28T15:20:45.639Z,101421.19
2023-03-28T15:23:29.845Z,101435.63
2023-03-28T15:26:02.592Z,101393.13
2023-03-28T15:28:31.645Z,101390.13
2023-03-28T15:31:03.099Z,101401.03
2023-03-28T15:33:35.313Z,101394.78
2023-03-28T15:36:16.220Z,101402.13
2023-03-28T15:38:45.178Z,101392.88
2023-03-28T15:41:40.261Z,101355.28
2023-03-28T15:44:29.257Z,101397.50
2023-03-28T15:47:05.153Z,101337.56
2023-03-28T15:49:38.343Z,101390.72
2023-03-28T15:52:17.086Z,101387.69
2023-03-28T15:54:50.709Z,101330.22
2023-03-28T15:57:22.059Z,101329.94
2023-03-28T15:59:56.510Z,101392.31
2023-03-28T16:02:26.519Z,101385.78
2023-03-28T16:05:00.799Z,101383.59
2023-03-28T16:07:37.222Z,101380.63
2023-03-28T16:10:05.548Z,101386.91
2023-03-28T16:12:42.103Z,101364.81
2023-03-28T16:15:46.849Z,101335.13
2023-03-28T16:18:27.270Z,101378.16
2023-03-28T16:20:58.736Z,101379.25
2023-03-28T16:23:27.310Z,101384.72
2023-03-28T16:25:55.441Z,101340.31
2023-03-28T16:28:23.473Z,101354.75
2023-03-28T16:30:53.373Z,101371.34
2023-03-28T16:33:25.866Z,101106.75
2023-03-28T16:35:53.993Z,101365.09
2023-03-28T16:38:22.576Z,101355.31
2023-03-28T16:40:51.208Z,101384.16
2023-03-28T16:43:20.688Z,101360.75
2023-03-28T16:45:50.350Z,101394.78
2023-03-28T16:48:18.996Z,101397.50
2023-03-28T16:50:56.220Z,101377.63
2023-03-28T16:53:24.077Z,101410.34
2023-03-28T16:55:52.935Z,101404.34
2023-03-28T16:58:21.148Z,101405.97
2023-03-28T17:00:52.206Z,101403.78
2023-03-28T17:03:20.495Z,101354.44
2023-03-28T17:05:48.380Z,101411.41
2023-03-28T17:08:16.467Z,101350.09
2023-03-28T17:10:44.270Z,101255.38
2023-03-28T17:13:12.917Z,101373.53
2023-03-28T17:15:40.790Z,101411.97
2023-03-28T17:18:09.591Z,101410.88
2023-03-28T17:20:37.634Z,101412.25
2023-03-28T17:23:05.394Z,101332.13
2023-03-28T17:25:41.709Z,101393.97
2023-03-28T17:28:17.522Z,101380.59
2023-03-28T17:30:45.505Z,101386.88
2023-03-28T17:33:13.810Z,101392.31
2023-03-28T17:35:41.674Z,101428.34
2023-03-28T17:38:10.718Z,101434.84
2023-03-28T17:40:40.957Z,101395.06
2023-03-28T17:43:09.890Z,101357.97
2023-03-28T17:45:39.586Z,101426.38
2023-03-28T17:48:08.533Z,101408.94
2023-03-28T17:50:40.898Z,101433.44
2023-03-28T17:53:09.821Z,101401.59
2023-03-28T17:55:38.049Z,101419.03
2023-03-28T17:58:06.485Z,101405.66
2023-03-28T18:00:34.524Z,101360.44
2023-03-28T18:03:02.770Z,101405.41
2023-03-28T18:06:00.553Z,101380.88
2023-03-28T18:08:30.266Z,101396.69
2023-03-28T18:11:09.698Z,101387.97
2023-03-28T18:13:38.652Z,101451.78
2023-03-28T18:16:11.635Z,101431.59
2023-03-28T18:18:40.538Z,101431.03
2023-03-28T18:21:08.777Z,101374.38
2023-03-28T18:23:39.816Z,101468.13
2023-03-28T18:26:08.284Z,101403.25
2023-03-28T18:28:38.497Z,101409.25
2023-03-28T18:31:09.518Z,101391.25
2023-03-28T18:33:39.636Z,101408.13
2023-03-28T18:36:08.364Z,101334.28
2023-03-28T18:38:48.784Z,101393.13
2023-03-28T18:41:18.666Z,101437.81
2023-03-28T18:43:46.792Z,101442.16
2023-03-28T18:46:16.043Z,101411.63
2023-03-28T18:48:45.524Z,101389.84
2023-03-28T18:51:14.011Z,101408.66
2023-03-28T18:53:43.462Z,101344.88
2023-03-28T18:56:14.011Z,101325.78
2023-03-28T18:58:41.772Z,101354.72
2023-03-28T19:01:11.521Z,101445.75
2023-03-28T19:03:44.636Z,101451.72
2023-03-28T19:06:15.615Z,101462.34
2023-03-28T19:08:45.109Z,101413.03
2023-03-28T19:11:16.993Z,101436.44
2023-03-28T19:13:46.231Z,101470.25
2023-03-28T19:16:16.953Z,101473.28
2023-03-28T19:18:47.066Z,101437.25
2023-03-28T19:21:20.302Z,101465.63
2023-03-28T19:23:52.000Z,101399.38
2023-03-28T19:26:20.004Z,101468.66
2023-03-28T19:28:49.073Z,101475.47
2023-03-28T19:31:17.098Z,101475.75
2023-03-28T19:33:45.439Z,101433.72
2023-03-28T19:36:13.456Z,101480.66
2023-03-28T19:38:41.456Z,101470.00
2023-03-28T19:41:18.336Z,101479.56
2023-03-28T19:43:48.039Z,101441.13
2023-03-28T19:46:22.148Z,101434.84
2023-03-28T19:48:54.343Z,101486.66
2023-03-28T19:51:22.393Z,101478.47
2023-03-28T19:53:50.296Z,101438.69
2023-03-28T19:56:23.245Z,101456.94
2023-03-28T19:58:54.605Z,101420.09
2023-03-28T20:01:22.685Z,101443.53
2023-03-28T20:03:53.987Z,101371.31
2023-03-28T20:06:22.960Z,101491.00
2023-03-28T20:08:52.657Z,101342.69
2023-03-28T20:11:20.714Z,101387.91
2023-03-28T20:13:48.845Z,101475.69
2023-03-28T20:16:17.237Z,101403.41
2023-03-28T20:18:49.227Z,101483.03
2023-03-28T20:21:19.172Z,101487.44
2023-03-28T20:23:47.090Z,101469.72
2023-03-28T20:26:29.645Z,101471.84
2023-03-28T20:28:59.736Z,101504.56
2023-03-28T20:31:28.264Z,101480.03
2023-03-28T20:33:56.786Z,101467.47
2023-03-28T20:36:24.913Z,101498.56
2023-03-28T20:38:56.034Z,101501.00
2023-03-28T20:41:26.440Z,101480.28
2023-03-28T20:43:56.047Z,101502.34
2023-03-28T20:46:25.360Z,101510.53
2023-03-28T20:48:57.160Z,101505.06
2023-03-28T20:51:26.375Z,101463.91
2023-03-28T20:53:57.668Z,101505.63
2023-03-28T20:56:28.104Z,101448.03
2023-03-28T20:59:01.165Z,101478.06
2023-03-28T21:01:33.202Z,101522.81
2023-03-28T21:04:03.480Z,101428.94
2023-03-28T21:06:36.094Z,101505.59
2023-03-28T21:09:10.168Z,101520.03
2023-03-28T21:11:39.912Z,101517.03
2023-03-28T21:14:09.024Z,101518.66
2023-03-28T21:16:37.892Z,101512.38
2023-03-28T21:19:07.076Z,101442.31
2023-03-28T21:21:35.249Z,101455.94
2023-03-28T21:24:05.285Z,101451.03
2023-03-28T21:26:34.590Z,101509.13
2023-03-28T21:29:03.096Z,101473.94
2023-03-28T21:31:31.125Z,101477.22
2023-03-28T21:34:05.776Z,101496.59
2023-03-28T21:36:33.588Z,101487.59
2023-03-28T21:39:02.140Z,101454.31
2023-03-28T21:41:30.037Z,101472.59
2023-03-28T21:43:57.974Z,101501.75
2023-03-28T21:46:25.868Z,101503.97
2023-03-28T21:48:54.231Z,101486.81
2023-03-28T21:51:21.926Z,101466.91
2023-03-28T21:53:49.858Z,101432.81
2023-03-28T21:56:17.771Z,101416.72
2023-03-28T21:58:45.944Z,101469.63
2023-03-28T22:01:15.273Z,101452.72
2023-03-28T22:03:44.585Z,101485.47
2023-03-28T22:06:13.559Z,101493.91
2023-03-28T22:08:46.110Z,101492.81
2023-03-28T22:11:17.072Z,101464.69
2023-03-28T22:13:47.546Z,101489.25
2023-03-28T22:16:15.796Z,101464.13
2023-03-28T22:18:50.419Z,101472.84
2023-03-28T22:21:18.418Z,101432.78
2023-03-28T22:23:47.796Z,101491.44
2023-03-28T22:26:16.389Z,101445.06
2023-03-28T22:28:44.999Z,101492.25
2023-03-28T22:31:13.343Z,101416.69
2023-03-28T22:33:41.562Z,101489.22
2023-03-28T22:36:10.918Z,101460.88
2023-03-28T22:38:39.378Z,101451.56
2023-03-28T22:41:08.041Z,101454.31
2023-03-28T22:43:38.715Z,101480.50
2023-03-28T22:46:06.808Z,101470.97
2023-03-28T22:48:34.814Z,101446.16
2023-03-28T22:51:02.952Z,101461.97
2023-03-28T22:53:31.180Z,101430.59
2023-03-28T22:55:59.241Z,101467.66
2023-03-28T22:58:27.626Z,101485.97
2023-03-28T23:00:55.519Z,101466.34
2023-03-28T23:03:24.137Z,101488.97
2023-03-28T23:05:51.951Z,101462.53
2023-03-28T23:08:20.448Z,101481.88
2023-03-28T23:10:49.796Z,101457.91
2023-03-28T23:13:18.042Z,101463.88
2023-03-28T23:15:47.355Z,101470.41
2023-03-28T23:18:18.205Z,101228.00
2023-03-28T23:20:51.413Z,101481.63
2023-03-28T23:23:19.221Z,101476.16
2023-03-28T23:25:47.592Z,101467.97
2023-03-28T23:28:19.771Z,101469.06
2023-03-28T23:30:48.036Z,101466.63
2023-03-28T23:33:19.444Z,101434.72
2023-03-28T23:35:48.621Z,101432.81
2023-03-28T23:38:17.749Z,101432.00
2023-03-28T23:40:46.369Z,101469.59
2023-03-28T23:43:14.767Z,101423.81
2023-03-28T23:45:43.601Z,101451.34
2023-03-28T23:48:12.319Z,101461.69
2023-03-28T23:50:40.969Z,101454.06
2023-03-28T23:53:10.033Z,101423.25
2023-03-28T23:55:37.802Z,101417.50
2023-03-28T23:58:05.869Z,101453.78
